sensor_id;sensor_type;location;lat;lon;timestamp;pressure;altitude;pressure_sealevel;temperature;humidity
79705;BME280;69940;53.120;8.764;2023-12-28T00:01:16;100708.00;;;9.42;79.32
79705;BME280;69940;53.120;8.764;2023-12-28T00:03:46;100710.00;;;9.41;80.00
79705;BME280;69940;53.120;8.764;2023-12-28T00:06:16;100712.00;;;9.39;80.32
79705;BME280;69940;53.120;8.764;2023-12-28T00:08:47;100715.00;;;9.37;80.67
79705;BME280;69940;53.120;8.764;2023-12-28T00:11:17;100716.00;;;9.35;80.85
79705;BME280;69940;53.120;8.764;2023-12-28T00:13:46;100716.00;;;9.34;80.93
79705;BME280;69940;53.120;8.764;2023-12-28T00:16:16;100717.00;;;9.33;80.95
79705;BME280;69940;53.120;8.764;2023-12-28T00:18:46;100720.00;;;9.32;80.90
79705;BME280;69940;53.120;8.764;2023-12-28T00:21:16;100720.00;;;9.31;80.86
79705;BME280;69940;53.120;8.764;2023-12-28T00:23:46;100721.00;;;9.31;80.88
79705;BME280;69940;53.120;8.764;2023-12-28T00:26:22;100720.00;;;9.31;80.88
79705;BME280;69940;53.120;8.764;2023-12-28T00:28:47;100721.00;;;9.30;80.88
79705;BME280;69940;53.120;8.764;2023-12-28T00:31:16;100721.00;;;9.30;80.81
79705;BME280;69940;53.120;8.764;2023-12-28T00:33:46;100723.00;;;9.30;80.80
79705;BME280;69940;53.120;8.764;2023-12-28T00:36:17;100725.00;;;9.30;80.75
79705;BME280;69940;53.120;8.764;2023-12-28T00:38:46;100722.00;;;9.31;80.82
79705;BME280;69940;53.120;8.764;2023-12-28T00:41:16;100723.00;;;9.31;81.11
79705;BME280;69940;53.120;8.764;2023-12-28T00:43:46;100726.00;;;9.32;81.28
79705;BME280;69940;53.120;8.764;2023-12-28T00:46:16;100731.00;;;9.31;81.40
79705;BME280;69940;53.120;8.764;2023-12-28T00:48:46;100729.00;;;9.30;81.47
79705;BME280;69940;53.120;8.764;2023-12-28T00:51:16;100730.00;;;9.30;81.41
79705;BME280;69940;53.120;8.764;2023-12-28T00:53:46;100730.00;;;9.31;81.42
79705;BME280;69940;53.120;8.764;2023-12-28T00:56:17;100731.00;;;9.31;81.41
79705;BME280;69940;53.120;8.764;2023-12-28T00:58:46;100731.00;;;9.32;81.45
79705;BME280;69940;53.120;8.764;2023-12-28T01:01:17;100733.00;;;9.32;81.47
79705;BME280;69940;53.120;8.764;2023-12-28T01:03:46;100737.00;;;9.33;81.48
79705;BME280;69940;53.120;8.764;2023-12-28T01:06:16;100740.00;;;9.35;81.41
79705;BME280;69940;53.120;8.764;2023-12-28T01:08:46;100743.00;;;9.36;81.40
79705;BME280;69940;53.120;8.764;2023-12-28T01:11:16;100746.00;;;9.38;81.42
79705;BME280;69940;53.120;8.764;2023-12-28T01:13:46;100749.00;;;9.39;81.37
79705;BME280;69940;53.120;8.764;2023-12-28T01:16:16;100753.00;;;9.41;81.28
79705;BME280;69940;53.120;8.764;2023-12-28T01:18:46;100759.00;;;9.43;81.29
79705;BME280;69940;53.120;8.764;2023-12-28T01:21:16;100765.00;;;9.44;81.34
79705;BME280;69940;53.120;8.764;2023-12-28T01:23:47;100773.00;;;9.47;81.28
79705;BME280;69940;53.120;8.764;2023-12-28T01:26:17;100781.00;;;9.49;81.22
79705;BME280;69940;53.120;8.764;2023-12-28T01:28:46;100788.00;;;9.51;81.18
79705;BME280;69940;53.120;8.764;2023-12-28T01:31:16;100792.00;;;9.52;81.09
79705;BME280;69940;53.120;8.764;2023-12-28T01:33:47;100797.00;;;9.54;81.05
79705;BME280;69940;53.120;8.764;2023-12-28T01:36:20;100803.00;;;9.55;81.00
79705;BME280;69940;53.120;8.764;2023-12-28T01:38:46;100807.00;;;9.56;81.02
79705;BME280;69940;53.120;8.764;2023-12-28T01:41:16;100809.00;;;9.57;80.97
79705;BME280;69940;53.120;8.764;2023-12-28T01:43:46;100808.00;;;9.58;80.93
79705;BME280;69940;53.120;8.764;2023-12-28T01:46:19;100809.00;;;9.59;80.99
79705;BME280;69940;53.120;8.764;2023-12-28T01:48:49;100813.00;;;9.60;80.95
79705;BME280;69940;53.120;8.764;2023-12-28T01:51:16;100816.00;;;9.61;80.90
79705;BME280;69940;53.120;8.764;2023-12-28T01:53:47;100816.00;;;9.61;80.73
79705;BME280;69940;53.120;8.764;2023-12-28T01:56:18;100817.00;;;9.62;80.69
79705;BME280;69940;53.120;8.764;2023-12-28T01:58:48;100821.00;;;9.62;80.67
79705;BME280;69940;53.120;8.764;2023-12-28T02:01:17;100824.00;;;9.62;80.66
79705;BME280;69940;53.120;8.764;2023-12-28T02:03:46;100824.00;;;9.61;80.65
79705;BME280;69940;53.120;8.764;2023-12-28T02:06:17;100826.00;;;9.60;80.69
79705;BME280;69940;53.120;8.764;2023-12-28T02:08:46;100827.00;;;9.60;80.76
79705;BME280;69940;53.120;8.764;2023-12-28T02:11:18;100828.00;;;9.59;80.62
79705;BME280;69940;53.120;8.764;2023-12-28T02:13:47;100830.00;;;9.59;80.66
79705;BME280;69940;53.120;8.764;2023-12-28T02:16:21;100828.00;;;9.59;80.51
79705;BME280;69940;53.120;8.764;2023-12-28T02:18:50;100827.00;;;9.60;80.54
79705;BME280;69940;53.120;8.764;2023-12-28T02:21:17;100826.00;;;9.61;80.44
79705;BME280;69940;53.120;8.764;2023-12-28T02:23:49;100824.00;;;9.61;80.45
79705;BME280;69940;53.120;8.764;2023-12-28T02:26:17;100823.00;;;9.62;80.45
79705;BME280;69940;53.120;8.764;2023-12-28T02:28:46;100822.00;;;9.64;80.32
79705;BME280;69940;53.120;8.764;2023-12-28T02:31:24;100821.00;;;9.65;80.30
79705;BME280;69940;53.120;8.764;2023-12-28T02:33:54;100821.00;;;9.66;80.32
79705;BME280;69940;53.120;8.764;2023-12-28T02:36:18;100819.00;;;9.66;80.35
79705;BME280;69940;53.120;8.764;2023-12-28T02:38:48;100818.00;;;9.66;80.38
79705;BME280;69940;53.120;8.764;2023-12-28T02:41:17;100818.00;;;9.65;80.36
79705;BME280;69940;53.120;8.764;2023-12-28T02:43:47;100818.00;;;9.64;80.40
79705;BME280;69940;53.120;8.764;2023-12-28T02:46:16;100818.00;;;9.64;80.42
79705;BME280;69940;53.120;8.764;2023-12-28T02:48:46;100818.00;;;9.63;80.37
79705;BME280;69940;53.120;8.764;2023-12-28T02:51:17;100817.00;;;9.62;80.39
79705;BME280;69940;53.120;8.764;2023-12-28T02:53:46;100818.00;;;9.61;80.45
79705;BME280;69940;53.120;8.764;2023-12-28T02:56:16;100816.00;;;9.60;80.47
79705;BME280;69940;53.120;8.764;2023-12-28T02:58:46;100814.00;;;9.58;80.46
79705;BME280;69940;53.120;8.764;2023-12-28T03:01:16;100814.00;;;9.57;80.58
79705;BME280;69940;53.120;8.764;2023-12-28T03:03:46;100813.00;;;9.55;80.59
79705;BME280;69940;53.120;8.764;2023-12-28T03:06:16;100810.00;;;9.54;80.61
79705;BME280;69940;53.120;8.764;2023-12-28T03:08:46;100810.00;;;9.53;80.65
79705;BME280;69940;53.120;8.764;2023-12-28T03:11:16;100811.00;;;9.52;80.69
79705;BME280;69940;53.120;8.764;2023-12-28T03:13:46;100810.00;;;9.51;80.68
79705;BME280;69940;53.120;8.764;2023-12-28T03:16:16;100810.00;;;9.50;80.71
79705;BME280;69940;53.120;8.764;2023-12-28T03:18:46;100812.00;;;9.50;80.63
79705;BME280;69940;53.120;8.764;2023-12-28T03:21:17;100813.00;;;9.50;80.64
79705;BME280;69940;53.120;8.764;2023-12-28T03:23:46;100811.00;;;9.50;80.63
79705;BME280;69940;53.120;8.764;2023-12-28T03:26:17;100809.00;;;9.50;80.63
79705;BME280;69940;53.120;8.764;2023-12-28T03:28:46;100806.00;;;9.50;80.62
79705;BME280;69940;53.120;8.764;2023-12-28T03:31:16;100803.00;;;9.50;80.61
79705;BME280;69940;53.120;8.764;2023-12-28T03:33:46;100799.00;;;9.51;80.59
79705;BME280;69940;53.120;8.764;2023-12-28T03:36:19;100796.00;;;9.51;80.62
79705;BME280;69940;53.120;8.764;2023-12-28T03:38:46;100794.00;;;9.52;80.57
79705;BME280;69940;53.120;8.764;2023-12-28T03:41:19;100791.00;;;9.52;80.57
79705;BME280;69940;53.120;8.764;2023-12-28T03:43:46;100789.00;;;9.53;80.56
79705;BME280;69940;53.120;8.764;2023-12-28T03:46:16;100789.00;;;9.53;80.59
79705;BME280;69940;53.120;8.764;2023-12-28T03:48:46;100787.00;;;9.53;80.63
79705;BME280;69940;53.120;8.764;2023-12-28T03:51:16;100784.00;;;9.53;80.60
79705;BME280;69940;53.120;8.764;2023-12-28T03:53:46;100781.00;;;9.54;80.63
79705;BME280;69940;53.120;8.764;2023-12-28T03:56:23;100779.00;;;9.54;80.63
79705;BME280;69940;53.120;8.764;2023-12-28T03:58:46;100777.00;;;9.54;80.65
79705;BME280;69940;53.120;8.764;2023-12-28T04:01:18;100776.00;;;9.54;80.65
79705;BME280;69940;53.120;8.764;2023-12-28T04:03:47;100774.00;;;9.54;80.77
79705;BME280;69940;53.120;8.764;2023-12-28T04:06:16;100770.00;;;9.55;80.72
79705;BME280;69940;53.120;8.764;2023-12-28T04:08:46;100770.00;;;9.55;80.78
79705;BME280;69940;53.120;8.764;2023-12-28T04:11:16;100768.00;;;9.56;80.72
79705;BME280;69940;53.120;8.764;2023-12-28T04:13:46;100769.00;;;9.56;80.78
79705;BME280;69940;53.120;8.764;2023-12-28T04:16:16;100770.00;;;9.56;80.83
79705;BME280;69940;53.120;8.764;2023-12-28T04:18:46;100772.00;;;9.57;80.85
79705;BME280;69940;53.120;8.764;2023-12-28T04:21:16;100775.00;;;9.57;80.88
79705;BME280;69940;53.120;8.764;2023-12-28T04:23:46;100778.00;;;9.58;80.90
79705;BME280;69940;53.120;8.764;2023-12-28T04:26:19;100777.00;;;9.59;80.94
79705;BME280;69940;53.120;8.764;2023-12-28T04:28:46;100777.00;;;9.59;80.97
79705;BME280;69940;53.120;8.764;2023-12-28T04:31:16;100778.00;;;9.59;80.99
79705;BME280;69940;53.120;8.764;2023-12-28T04:33:46;100781.00;;;9.59;80.97
79705;BME280;69940;53.120;8.764;2023-12-28T04:36:16;100778.00;;;9.60;81.05
79705;BME280;69940;53.120;8.764;2023-12-28T04:38:46;100775.00;;;9.60;81.03
79705;BME280;69940;53.120;8.764;2023-12-28T04:41:16;100772.00;;;9.61;81.05
79705;BME280;69940;53.120;8.764;2023-12-28T04:43:46;100771.00;;;9.61;81.09
79705;BME280;69940;53.120;8.764;2023-12-28T04:46:16;100770.00;;;9.61;81.14
79705;BME280;69940;53.120;8.764;2023-12-28T04:48:47;100769.00;;;9.60;81.21
79705;BME280;69940;53.120;8.764;2023-12-28T04:51:16;100765.00;;;9.59;81.26
79705;BME280;69940;53.120;8.764;2023-12-28T04:53:46;100764.00;;;9.59;81.31
79705;BME280;69940;53.120;8.764;2023-12-28T04:56:19;100763.00;;;9.58;81.33
79705;BME280;69940;53.120;8.764;2023-12-28T04:58:47;100759.00;;;9.58;81.36
79705;BME280;69940;53.120;8.764;2023-12-28T05:01:16;100757.00;;;9.58;81.39
79705;BME280;69940;53.120;8.764;2023-12-28T05:03:46;100757.00;;;9.58;81.42
79705;BME280;69940;53.120;8.764;2023-12-28T05:06:16;100756.00;;;9.58;81.49
79705;BME280;69940;53.120;8.764;2023-12-28T05:08:46;100757.00;;;9.58;81.54
79705;BME280;69940;53.120;8.764;2023-12-28T05:11:16;100757.00;;;9.58;81.56
79705;BME280;69940;53.120;8.764;2023-12-28T05:13:46;100757.00;;;9.58;81.60
79705;BME280;69940;53.120;8.764;2023-12-28T05:16:16;100754.00;;;9.57;81.68
79705;BME280;69940;53.120;8.764;2023-12-28T05:18:47;100749.00;;;9.57;81.75
79705;BME280;69940;53.120;8.764;2023-12-28T05:21:16;100747.00;;;9.57;81.75
79705;BME280;69940;53.120;8.764;2023-12-28T05:23:46;100749.00;;;9.56;81.87
79705;BME280;69940;53.120;8.764;2023-12-28T05:26:16;100748.00;;;9.56;81.91
79705;BME280;69940;53.120;8.764;2023-12-28T05:28:46;100749.00;;;9.55;82.01
79705;BME280;69940;53.120;8.764;2023-12-28T05:31:16;100750.00;;;9.55;82.10
79705;BME280;69940;53.120;8.764;2023-12-28T05:33:46;100752.00;;;9.54;82.14
79705;BME280;69940;53.120;8.764;2023-12-28T05:36:16;100756.00;;;9.54;82.10
79705;BME280;69940;53.120;8.764;2023-12-28T05:38:46;100758.00;;;9.54;82.10
79705;BME280;69940;53.120;8.764;2023-12-28T05:41:17;100759.00;;;9.55;82.15
79705;BME280;69940;53.120;8.764;2023-12-28T05:43:46;100758.00;;;9.56;82.06
79705;BME280;69940;53.120;8.764;2023-12-28T05:46:16;100758.00;;;9.56;82.05
79705;BME280;69940;53.120;8.764;2023-12-28T05:48:47;100758.00;;;9.57;82.08
79705;BME280;69940;53.120;8.764;2023-12-28T05:51:16;100759.00;;;9.57;82.12
79705;BME280;69940;53.120;8.764;2023-12-28T05:53:46;100760.00;;;9.57;82.19
79705;BME280;69940;53.120;8.764;2023-12-28T05:56:16;100765.00;;;9.58;82.21
79705;BME280;69940;53.120;8.764;2023-12-28T05:58:46;100768.00;;;9.59;82.12
79705;BME280;69940;53.120;8.764;2023-12-28T06:01:16;100772.00;;;9.61;82.10
79705;BME280;69940;53.120;8.764;2023-12-28T06:03:51;100774.00;;;9.63;82.04
79705;BME280;69940;53.120;8.764;2023-12-28T06:06:17;100773.00;;;9.66;81.94
79705;BME280;69940;53.120;8.764;2023-12-28T06:08:46;100774.00;;;9.69;81.89
79705;BME280;69940;53.120;8.764;2023-12-28T06:11:16;100776.00;;;9.73;81.79
79705;BME280;69940;53.120;8.764;2023-12-28T06:13:46;100777.00;;;9.76;81.68
79705;BME280;69940;53.120;8.764;2023-12-28T06:16:16;100779.00;;;9.79;81.60
79705;BME280;69940;53.120;8.764;2023-12-28T06:18:46;100780.00;;;9.83;81.54
79705;BME280;69940;53.120;8.764;2023-12-28T06:21:16;100782.00;;;9.86;81.49
79705;BME280;69940;53.120;8.764;2023-12-28T06:23:46;100784.00;;;9.89;81.46
79705;BME280;69940;53.120;8.764;2023-12-28T06:26:16;100783.00;;;9.91;81.38
79705;BME280;69940;53.120;8.764;2023-12-28T06:28:46;100780.00;;;9.93;81.39
79705;BME280;69940;53.120;8.764;2023-12-28T06:31:16;100781.00;;;9.96;81.30
79705;BME280;69940;53.120;8.764;2023-12-28T06:33:46;100781.00;;;9.98;81.13
79705;BME280;69940;53.120;8.764;2023-12-28T06:36:17;100782.00;;;10.01;81.10
79705;BME280;69940;53.120;8.764;2023-12-28T06:38:46;100785.00;;;10.03;81.00
79705;BME280;69940;53.120;8.764;2023-12-28T06:41:16;100786.00;;;10.05;80.93
79705;BME280;69940;53.120;8.764;2023-12-28T06:43:46;100789.00;;;10.08;80.80
79705;BME280;69940;53.120;8.764;2023-12-28T06:46:17;100792.00;;;10.10;80.70
79705;BME280;69940;53.120;8.764;2023-12-28T06:48:46;100794.00;;;10.12;80.63
79705;BME280;69940;53.120;8.764;2023-12-28T06:51:17;100790.00;;;10.15;80.50
79705;BME280;69940;53.120;8.764;2023-12-28T06:53:47;100784.00;;;10.18;80.47
79705;BME280;69940;53.120;8.764;2023-12-28T06:56:17;100783.00;;;10.20;80.39
79705;BME280;69940;53.120;8.764;2023-12-28T06:58:46;100783.00;;;10.22;80.27
79705;BME280;69940;53.120;8.764;2023-12-28T07:01:17;100781.00;;;10.25;80.25
79705;BME280;69940;53.120;8.764;2023-12-28T07:03:46;100782.00;;;10.27;79.99
79705;BME280;69940;53.120;8.764;2023-12-28T07:06:16;100782.00;;;10.30;79.83
79705;BME280;69940;53.120;8.764;2023-12-28T07:08:46;100784.00;;;10.33;79.78
79705;BME280;69940;53.120;8.764;2023-12-28T07:11:16;100784.00;;;10.37;79.74
79705;BME280;69940;53.120;8.764;2023-12-28T07:13:47;100781.00;;;10.39;79.68
79705;BME280;69940;53.120;8.764;2023-12-28T07:16:16;100782.00;;;10.42;79.60
79705;BME280;69940;53.120;8.764;2023-12-28T07:18:46;100782.00;;;10.45;79.50
79705;BME280;69940;53.120;8.764;2023-12-28T07:21:17;100781.00;;;10.48;79.36
79705;BME280;69940;53.120;8.764;2023-12-28T07:23:50;100784.00;;;10.50;79.24
79705;BME280;69940;53.120;8.764;2023-12-28T07:26:16;100783.00;;;10.53;79.13
79705;BME280;69940;53.120;8.764;2023-12-28T07:28:49;100782.00;;;10.56;79.11
79705;BME280;69940;53.120;8.764;2023-12-28T07:31:26;100781.00;;;10.59;78.92
79705;BME280;69940;53.120;8.764;2023-12-28T07:33:46;100781.00;;;10.62;78.96
79705;BME280;69940;53.120;8.764;2023-12-28T07:36:16;100780.00;;;10.64;78.88
79705;BME280;69940;53.120;8.764;2023-12-28T07:38:46;100780.00;;;10.66;78.68
79705;BME280;69940;53.120;8.764;2023-12-28T07:41:16;100781.00;;;10.69;78.46
79705;BME280;69940;53.120;8.764;2023-12-28T07:43:46;100780.00;;;10.71;78.32
79705;BME280;69940;53.120;8.764;2023-12-28T07:46:16;100781.00;;;10.74;78.19
79705;BME280;69940;53.120;8.764;2023-12-28T07:48:46;100780.00;;;10.76;78.29
79705;BME280;69940;53.120;8.764;2023-12-28T07:51:16;100779.00;;;10.79;78.25
79705;BME280;69940;53.120;8.764;2023-12-28T07:53:46;100776.00;;;10.81;78.18
79705;BME280;69940;53.120;8.764;2023-12-28T07:56:16;100778.00;;;10.82;78.13
79705;BME280;69940;53.120;8.764;2023-12-28T07:58:46;100779.00;;;10.84;77.90
79705;BME280;69940;53.120;8.764;2023-12-28T08:01:16;100778.00;;;10.86;77.65
79705;BME280;69940;53.120;8.764;2023-12-28T08:03:46;100780.00;;;10.89;77.49
79705;BME280;69940;53.120;8.764;2023-12-28T08:06:16;100778.00;;;10.91;77.42
79705;BME280;69940;53.120;8.764;2023-12-28T08:08:46;100780.00;;;10.93;77.34
79705;BME280;69940;53.120;8.764;2023-12-28T08:11:16;100778.00;;;10.95;77.17
79705;BME280;69940;53.120;8.764;2023-12-28T08:13:46;100784.00;;;10.97;77.28
79705;BME280;69940;53.120;8.764;2023-12-28T08:16:17;100786.00;;;11.00;77.08
79705;BME280;69940;53.120;8.764;2023-12-28T08:18:47;100787.00;;;11.02;77.00
79705;BME280;69940;53.120;8.764;2023-12-28T08:21:16;100793.00;;;11.04;77.06
79705;BME280;69940;53.120;8.764;2023-12-28T08:23:46;100798.00;;;11.06;76.83
79705;BME280;69940;53.120;8.764;2023-12-28T08:26:16;100798.00;;;11.08;76.65
79705;BME280;69940;53.120;8.764;2023-12-28T08:28:46;100800.00;;;11.11;76.68
79705;BME280;69940;53.120;8.764;2023-12-28T08:31:17;100799.00;;;11.12;76.66
79705;BME280;69940;53.120;8.764;2023-12-28T08:33:46;100794.00;;;11.15;76.52
79705;BME280;69940;53.120;8.764;2023-12-28T08:36:18;100794.00;;;11.16;76.33
79705;BME280;69940;53.120;8.764;2023-12-28T08:38:46;100796.00;;;11.19;76.23
79705;BME280;69940;53.120;8.764;2023-12-28T08:41:20;100797.00;;;11.21;75.83
79705;BME280;69940;53.120;8.764;2023-12-28T08:43:47;100795.00;;;11.23;75.96
79705;BME280;69940;53.120;8.764;2023-12-28T08:46:16;100789.00;;;11.26;75.52
79705;BME280;69940;53.120;8.764;2023-12-28T08:48:46;100791.00;;;11.29;75.41
79705;BME280;69940;53.120;8.764;2023-12-28T08:51:16;100789.00;;;11.31;75.44
79705;BME280;69940;53.120;8.764;2023-12-28T08:53:46;100789.00;;;11.32;75.41
79705;BME280;69940;53.120;8.764;2023-12-28T08:56:17;100791.00;;;11.34;75.04
79705;BME280;69940;53.120;8.764;2023-12-28T08:58:48;100794.00;;;11.37;74.99
79705;BME280;69940;53.120;8.764;2023-12-28T09:01:19;100795.00;;;11.41;74.91
79705;BME280;69940;53.120;8.764;2023-12-28T09:03:47;100797.00;;;11.45;74.61
79705;BME280;69940;53.120;8.764;2023-12-28T09:06:16;100798.00;;;11.50;74.68
79705;BME280;69940;53.120;8.764;2023-12-28T09:08:49;100803.00;;;11.54;74.75
79705;BME280;69940;53.120;8.764;2023-12-28T09:11:16;100806.00;;;11.58;74.65
79705;BME280;69940;53.120;8.764;2023-12-28T09:13:46;100811.00;;;11.60;74.70
79705;BME280;69940;53.120;8.764;2023-12-28T09:16:16;100814.00;;;11.62;74.54
79705;BME280;69940;53.120;8.764;2023-12-28T09:18:46;100814.00;;;11.63;74.78
79705;BME280;69940;53.120;8.764;2023-12-28T09:21:16;100814.00;;;11.64;74.83
79705;BME280;69940;53.120;8.764;2023-12-28T09:23:46;100817.00;;;11.65;74.86
79705;BME280;69940;53.120;8.764;2023-12-28T09:26:16;100819.00;;;11.66;74.88
79705;BME280;69940;53.120;8.764;2023-12-28T09:28:46;100820.00;;;11.66;74.84
79705;BME280;69940;53.120;8.764;2023-12-28T09:31:16;100819.00;;;11.67;74.94
79705;BME280;69940;53.120;8.764;2023-12-28T09:33:46;100815.00;;;11.69;74.83
79705;BME280;69940;53.120;8.764;2023-12-28T09:36:17;100807.00;;;11.70;74.61
79705;BME280;69940;53.120;8.764;2023-12-28T09:38:46;100808.00;;;11.71;74.47
79705;BME280;69940;53.120;8.764;2023-12-28T09:41:21;100808.00;;;11.72;74.76
79705;BME280;69940;53.120;8.764;2023-12-28T09:44:08;100806.00;;;11.73;74.60
79705;BME280;69940;53.120;8.764;2023-12-28T09:46:16;100807.00;;;11.74;74.43
79705;BME280;69940;53.120;8.764;2023-12-28T09:48:46;100812.00;;;11.75;74.53
79705;BME280;69940;53.120;8.764;2023-12-28T09:51:18;100813.00;;;11.75;74.42
79705;BME280;69940;53.120;8.764;2023-12-28T09:53:46;100814.00;;;11.75;74.44
79705;BME280;69940;53.120;8.764;2023-12-28T09:56:16;100815.00;;;11.75;74.46
79705;BME280;69940;53.120;8.764;2023-12-28T09:58:48;100822.00;;;11.75;74.64
79705;BME280;69940;53.120;8.764;2023-12-28T10:01:17;100825.00;;;11.75;74.58
79705;BME280;69940;53.120;8.764;2023-12-28T10:03:46;100826.00;;;11.75;74.43
79705;BME280;69940;53.120;8.764;2023-12-28T10:06:17;100827.00;;;11.74;74.55
79705;BME280;69940;53.120;8.764;2023-12-28T10:08:48;100819.00;;;11.74;74.48
79705;BME280;69940;53.120;8.764;2023-12-28T10:11:17;100822.00;;;11.73;74.52
79705;BME280;69940;53.120;8.764;2023-12-28T10:13:46;100827.00;;;11.73;74.55
79705;BME280;69940;53.120;8.764;2023-12-28T10:16:16;100829.00;;;11.75;74.38
79705;BME280;69940;53.120;8.764;2023-12-28T10:18:46;100831.00;;;11.77;74.24
79705;BME280;69940;53.120;8.764;2023-12-28T10:21:16;100834.00;;;11.81;74.02
79705;BME280;69940;53.120;8.764;2023-12-28T10:23:46;100835.00;;;11.84;74.07
79705;BME280;69940;53.120;8.764;2023-12-28T10:26:19;100836.00;;;11.88;74.07
79705;BME280;69940;53.120;8.764;2023-12-28T10:28:46;100838.00;;;11.92;74.09
79705;BME280;69940;53.120;8.764;2023-12-28T10:31:16;100837.00;;;11.95;73.99
79705;BME280;69940;53.120;8.764;2023-12-28T10:33:47;100838.00;;;11.97;73.76
79705;BME280;69940;53.120;8.764;2023-12-28T10:36:18;100843.00;;;11.97;73.99
79705;BME280;69940;53.120;8.764;2023-12-28T10:38:47;100849.00;;;11.98;74.05
79705;BME280;69940;53.120;8.764;2023-12-28T10:41:17;100850.00;;;11.99;73.84
79705;BME280;69940;53.120;8.764;2023-12-28T10:43:54;100849.00;;;11.99;73.81
79705;BME280;69940;53.120;8.764;2023-12-28T10:46:27;100846.00;;;12.00;73.90
79705;BME280;69940;53.120;8.764;2023-12-28T10:48:48;100845.00;;;12.01;73.81
79705;BME280;69940;53.120;8.764;2023-12-28T10:51:21;100845.00;;;12.02;73.71
79705;BME280;69940;53.120;8.764;2023-12-28T10:53:56;100846.00;;;12.04;73.89
79705;BME280;69940;53.120;8.764;2023-12-28T10:56:36;100846.00;;;12.06;73.87
79705;BME280;69940;53.120;8.764;2023-12-28T10:58:49;100847.00;;;12.08;73.68
79705;BME280;69940;53.120;8.764;2023-12-28T11:01:22;100851.00;;;12.09;73.78
79705;BME280;69940;53.120;8.764;2023-12-28T11:03:53;100849.00;;;12.10;73.91
79705;BME280;69940;53.120;8.764;2023-12-28T11:06:16;100845.00;;;12.10;73.75
79705;BME280;69940;53.120;8.764;2023-12-28T11:08:53;100847.00;;;12.10;73.85
79705;BME280;69940;53.120;8.764;2023-12-28T11:11:16;100845.00;;;12.10;73.63
79705;BME280;69940;53.120;8.764;2023-12-28T11:13:47;100844.00;;;12.10;73.99
79705;BME280;69940;53.120;8.764;2023-12-28T11:16:18;100844.00;;;12.11;74.03
79705;BME280;69940;53.120;8.764;2023-12-28T11:18:47;100839.00;;;12.13;73.74
79705;BME280;69940;53.120;8.764;2023-12-28T11:21:17;100836.00;;;12.15;73.39
79705;BME280;69940;53.120;8.764;2023-12-28T11:23:49;100837.00;;;12.18;73.14
79705;BME280;69940;53.120;8.764;2023-12-28T11:26:20;100837.00;;;12.21;73.27
79705;BME280;69940;53.120;8.764;2023-12-28T11:28:46;100838.00;;;12.24;72.94
79705;BME280;69940;53.120;8.764;2023-12-28T11:31:17;100839.00;;;12.27;73.02
79705;BME280;69940;53.120;8.764;2023-12-28T11:33:47;100840.00;;;12.30;72.81
79705;BME280;69940;53.120;8.764;2023-12-28T11:36:31;100840.00;;;12.32;72.70
79705;BME280;69940;53.120;8.764;2023-12-28T11:38:46;100839.00;;;12.33;72.63
79705;BME280;69940;53.120;8.764;2023-12-28T11:41:16;100838.00;;;12.33;73.01
79705;BME280;69940;53.120;8.764;2023-12-28T11:43:51;100836.00;;;12.31;72.85
79705;BME280;69940;53.120;8.764;2023-12-28T11:46:17;100836.00;;;12.29;73.08
79705;BME280;69940;53.120;8.764;2023-12-28T11:48:46;100839.00;;;12.26;73.10
79705;BME280;69940;53.120;8.764;2023-12-28T11:51:17;100839.00;;;12.23;73.33
79705;BME280;69940;53.120;8.764;2023-12-28T11:53:47;100839.00;;;12.21;73.29
79705;BME280;69940;53.120;8.764;2023-12-28T11:56:16;100839.00;;;12.18;73.44
79705;BME280;69940;53.120;8.764;2023-12-28T11:58:48;100838.00;;;12.16;73.38
79705;BME280;69940;53.120;8.764;2023-12-28T12:01:16;100840.00;;;12.14;73.59
79705;BME280;69940;53.120;8.764;2023-12-28T12:03:46;100841.00;;;12.13;73.83
79705;BME280;69940;53.120;8.764;2023-12-28T12:06:19;100838.00;;;12.11;73.81
79705;BME280;69940;53.120;8.764;2023-12-28T12:08:47;100838.00;;;12.09;73.81
79705;BME280;69940;53.120;8.764;2023-12-28T12:11:17;100838.00;;;12.08;73.71
79705;BME280;69940;53.120;8.764;2023-12-28T12:13:46;100835.00;;;12.07;73.71
79705;BME280;69940;53.120;8.764;2023-12-28T12:16:17;100833.00;;;12.07;73.67
79705;BME280;69940;53.120;8.764;2023-12-28T12:18:46;100833.00;;;12.07;73.84
79705;BME280;69940;53.120;8.764;2023-12-28T12:21:17;100834.00;;;12.08;73.70
79705;BME280;69940;53.120;8.764;2023-12-28T12:23:46;100837.00;;;12.08;73.67
79705;BME280;69940;53.120;8.764;2023-12-28T12:26:19;100838.00;;;12.08;73.61
79705;BME280;69940;53.120;8.764;2023-12-28T12:28:46;100838.00;;;12.07;73.77
79705;BME280;69940;53.120;8.764;2023-12-28T12:31:16;100837.00;;;12.07;73.63
79705;BME280;69940;53.120;8.764;2023-12-28T12:33:46;100836.00;;;12.07;73.60
79705;BME280;69940;53.120;8.764;2023-12-28T12:36:17;100836.00;;;12.07;73.63
79705;BME280;69940;53.120;8.764;2023-12-28T12:38:46;100837.00;;;12.07;73.79
79705;BME280;69940;53.120;8.764;2023-12-28T12:41:17;100836.00;;;12.07;73.83
79705;BME280;69940;53.120;8.764;2023-12-28T12:43:46;100836.00;;;12.07;73.78
79705;BME280;69940;53.120;8.764;2023-12-28T12:46:16;100836.00;;;12.07;73.52
79705;BME280;69940;53.120;8.764;2023-12-28T12:48:54;100833.00;;;12.07;73.49
79705;BME280;69940;53.120;8.764;2023-12-28T12:51:18;100830.00;;;12.07;73.67
79705;BME280;69940;53.120;8.764;2023-12-28T12:53:46;100827.00;;;12.07;73.81
79705;BME280;69940;53.120;8.764;2023-12-28T12:56:19;100822.00;;;12.06;73.85
79705;BME280;69940;53.120;8.764;2023-12-28T12:58:46;100823.00;;;12.06;73.90
79705;BME280;69940;53.120;8.764;2023-12-28T13:01:16;100823.00;;;12.06;73.98
79705;BME280;69940;53.120;8.764;2023-12-28T13:03:46;100826.00;;;12.05;74.11
79705;BME280;69940;53.120;8.764;2023-12-28T13:06:16;100824.00;;;12.05;74.08
79705;BME280;69940;53.120;8.764;2023-12-28T13:08:46;100824.00;;;12.05;74.10